sensor_id;sensor_type;location;lat;lon;timestamp;P1;durP1;ratioP1;P2;durP2;ratioP2
32505;SDS011;18955;51.224;8.482;2024-03-22T00:01:52;39.92;;;25.00;;
32505;SDS011;18955;51.224;8.482;2024-03-22T00:04:19;50.00;;;29.40;;
32505;SDS011;18955;51.224;8.482;2024-03-22T00:09:13;49.47;;;25.75;;
32505;SDS011;18955;51.224;8.482;2024-03-22T00:11:40;47.05;;;25.70;;
32505;SDS011;18955;51.224;8.482;2024-03-22T00:14:07;47.78;;;26.35;;
32505;SDS011;18955;51.224;8.482;2024-03-22T00:16:34;50.00;;;29.77;;
32505;SDS011;18955;51.224;8.482;2024-03-22T00:19:00;47.33;;;28.75;;
32505;SDS011;18955;51.224;8.482;2024-03-22T00:21:27;47.05;;;28.65;;
32505;SDS011;18955;51.224;8.482;2024-03-22T00:23:58;51.67;;;29.15;;
32505;SDS011;18955;51.224;8.482;2024-03-22T00:26:24;51.90;;;28.65;;
32505;SDS011;18955;51.224;8.482;2024-03-22T00:28:50;49.72;;;28.33;;
32505;SDS011;18955;51.224;8.482;2024-03-22T00:31:17;51.35;;;31.30;;
32505;SDS011;18955;51.224;8.482;2024-03-22T00:36:10;49.60;;;27.65;;
32505;SDS011;18955;51.224;8.482;2024-03-22T00:38:36;51.15;;;28.15;;
32505;SDS011;18955;51.224;8.482;2024-03-22T00:41:03;54.50;;;30.80;;
32505;SDS011;18955;51.224;8.482;2024-03-22T00:43:29;50.75;;;29.75;;
32505;SDS011;18955;51.224;8.482;2024-03-22T00:45:55;51.85;;;31.05;;
32505;SDS011;18955;51.224;8.482;2024-03-22T00:48:22;63.33;;;32.85;;
32505;SDS011;18955;51.224;8.482;2024-03-22T00:50:48;53.40;;;31.95;;
32505;SDS011;18955;51.224;8.482;2024-03-22T00:53:14;58.85;;;31.67;;
32505;SDS011;18955;51.224;8.482;2024-03-22T00:55:40;59.00;;;32.72;;
32505;SDS011;18955;51.224;8.482;2024-03-22T00:58:06;54.65;;;31.10;;
32505;SDS011;18955;51.224;8.482;2024-03-22T01:00:33;43.90;;;24.45;;
32505;SDS011;18955;51.224;8.482;2024-03-22T01:02:59;52.78;;;31.20;;
32505;SDS011;18955;51.224;8.482;2024-03-22T01:05:26;57.70;;;34.80;;
32505;SDS011;18955;51.224;8.482;2024-03-22T01:07:52;41.05;;;22.90;;
32505;SDS011;18955;51.224;8.482;2024-03-22T01:10:18;56.30;;;32.63;;
32505;SDS011;18955;51.224;8.482;2024-03-22T01:15:11;54.90;;;30.00;;
32505;SDS011;18955;51.224;8.482;2024-03-22T01:17:37;39.45;;;22.40;;
32505;SDS011;18955;51.224;8.482;2024-03-22T01:20:04;62.70;;;34.20;;
32505;SDS011;18955;51.224;8.482;2024-03-22T01:22:30;55.78;;;31.80;;
32505;SDS011;18955;51.224;8.482;2024-03-22T01:24:56;58.63;;;33.47;;
32505;SDS011;18955;51.224;8.482;2024-03-22T01:27:23;59.25;;;34.03;;
32505;SDS011;18955;51.224;8.482;2024-03-22T01:29:49;52.65;;;29.50;;
32505;SDS011;18955;51.224;8.482;2024-03-22T01:32:15;44.65;;;24.00;;
32505;SDS011;18955;51.224;8.482;2024-03-22T01:34:41;58.00;;;32.88;;
32505;SDS011;18955;51.224;8.482;2024-03-22T01:37:08;48.65;;;28.30;;
32505;SDS011;18955;51.224;8.482;2024-03-22T01:42:00;59.45;;;31.52;;
32505;SDS011;18955;51.224;8.482;2024-03-22T01:44:31;56.47;;;31.90;;
32505;SDS011;18955;51.224;8.482;2024-03-22T01:46:58;51.90;;;30.58;;
32505;SDS011;18955;51.224;8.482;2024-03-22T01:49:27;48.97;;;28.63;;
32505;SDS011;18955;51.224;8.482;2024-03-22T01:51:54;52.08;;;29.52;;
32505;SDS011;18955;51.224;8.482;2024-03-22T01:54:20;42.78;;;25.58;;
32505;SDS011;18955;51.224;8.482;2024-03-22T01:56:47;55.42;;;30.95;;
32505;SDS011;18955;51.224;8.482;2024-03-22T01:59:13;51.20;;;29.83;;
32505;SDS011;18955;51.224;8.482;2024-03-22T02:01:40;54.95;;;31.42;;
32505;SDS011;18955;51.224;8.482;2024-03-22T02:06:33;50.75;;;28.20;;
32505;SDS011;18955;51.224;8.482;2024-03-22T02:09:00;54.20;;;30.52;;
32505;SDS011;18955;51.224;8.482;2024-03-22T02:11:26;62.90;;;32.85;;
32505;SDS011;18955;51.224;8.482;2024-03-22T02:13:54;59.95;;;31.67;;
32505;SDS011;18955;51.224;8.482;2024-03-22T02:16:20;53.33;;;28.63;;
32505;SDS011;18955;51.224;8.482;2024-03-22T02:18:46;38.78;;;22.85;;
32505;SDS011;18955;51.224;8.482;2024-03-22T02:21:13;37.05;;;21.00;;
32505;SDS011;18955;51.224;8.482;2024-03-22T02:23:39;57.15;;;30.98;;
32505;SDS011;18955;51.224;8.482;2024-03-22T02:26:07;53.03;;;28.38;;
32505;SDS011;18955;51.224;8.482;2024-03-22T02:28:34;56.05;;;29.65;;
32505;SDS011;18955;51.224;8.482;2024-03-22T02:31:02;54.50;;;29.80;;
32505;SDS011;18955;51.224;8.482;2024-03-22T02:33:28;55.88;;;28.25;;
32505;SDS011;18955;51.224;8.482;2024-03-22T02:38:22;46.58;;;25.70;;
32505;SDS011;18955;51.224;8.482;2024-03-22T02:40:48;44.90;;;24.80;;
32505;SDS011;18955;51.224;8.482;2024-03-22T02:43:16;45.20;;;22.88;;
32505;SDS011;18955;51.224;8.482;2024-03-22T02:45:44;46.90;;;24.83;;
32505;SDS011;18955;51.224;8.482;2024-03-22T02:48:11;52.03;;;28.33;;
32505;SDS011;18955;51.224;8.482;2024-03-22T02:50:37;49.05;;;25.85;;
32505;SDS011;18955;51.224;8.482;2024-03-22T02:53:04;48.33;;;26.67;;
32505;SDS011;18955;51.224;8.482;2024-03-22T02:58:04;45.22;;;22.83;;
32505;SDS011;18955;51.224;8.482;2024-03-22T03:00:35;50.45;;;25.15;;
32505;SDS011;18955;51.224;8.482;2024-03-22T03:03:07;48.72;;;25.83;;
32505;SDS011;18955;51.224;8.482;2024-03-22T03:05:33;46.75;;;24.23;;
32505;SDS011;18955;51.224;8.482;2024-03-22T03:08:02;48.03;;;23.17;;
32505;SDS011;18955;51.224;8.482;2024-03-22T03:10:29;46.15;;;23.67;;
32505;SDS011;18955;51.224;8.482;2024-03-22T03:12:55;29.65;;;15.88;;
32505;SDS011;18955;51.224;8.482;2024-03-22T03:15:21;47.35;;;23.83;;
32505;SDS011;18955;51.224;8.482;2024-03-22T03:17:48;41.65;;;22.45;;
32505;SDS011;18955;51.224;8.482;2024-03-22T03:20:14;47.10;;;24.48;;
32505;SDS011;18955;51.224;8.482;2024-03-22T03:22:41;48.67;;;24.48;;
32505;SDS011;18955;51.224;8.482;2024-03-22T03:25:07;29.90;;;17.33;;
32505;SDS011;18955;51.224;8.482;2024-03-22T03:27:34;43.42;;;22.35;;
32505;SDS011;18955;51.224;8.482;2024-03-22T03:30:00;41.13;;;22.73;;
32505;SDS011;18955;51.224;8.482;2024-03-22T03:32:27;45.35;;;23.02;;
32505;SDS011;18955;51.224;8.482;2024-03-22T03:34:54;47.08;;;22.52;;
32505;SDS011;18955;51.224;8.482;2024-03-22T03:37:20;40.35;;;22.25;;
32505;SDS011;18955;51.224;8.482;2024-03-22T03:39:46;46.25;;;23.98;;
32505;SDS011;18955;51.224;8.482;2024-03-22T03:42:13;40.13;;;22.88;;
32505;SDS011;18955;51.224;8.482;2024-03-22T03:44:40;41.30;;;21.05;;
32505;SDS011;18955;51.224;8.482;2024-03-22T03:47:07;41.33;;;22.13;;
32505;SDS011;18955;51.224;8.482;2024-03-22T03:49:33;43.50;;;21.58;;
32505;SDS011;18955;51.224;8.482;2024-03-22T03:52:00;41.88;;;21.38;;
32505;SDS011;18955;51.224;8.482;2024-03-22T03:54:26;39.58;;;21.88;;
32505;SDS011;18955;51.224;8.482;2024-03-22T03:56:52;46.85;;;24.23;;
32505;SDS011;18955;51.224;8.482;2024-03-22T03:59:19;42.33;;;20.70;;
32505;SDS011;18955;51.224;8.482;2024-03-22T04:01:45;44.38;;;21.02;;
32505;SDS011;18955;51.224;8.482;2024-03-22T04:04:11;32.13;;;16.23;;
32505;SDS011;18955;51.224;8.482;2024-03-22T04:06:38;33.35;;;19.20;;
32505;SDS011;18955;51.224;8.482;2024-03-22T04:09:04;28.42;;;16.55;;
32505;SDS011;18955;51.224;8.482;2024-03-22T04:11:30;43.58;;;21.63;;
32505;SDS011;18955;51.224;8.482;2024-03-22T04:13:57;39.85;;;20.63;;
32505;SDS011;18955;51.224;8.482;2024-03-22T04:16:23;38.85;;;21.48;;
32505;SDS011;18955;51.224;8.482;2024-03-22T04:18:49;42.20;;;22.80;;
32505;SDS011;18955;51.224;8.482;2024-03-22T04:21:15;30.77;;;16.20;;
32505;SDS011;18955;51.224;8.482;2024-03-22T04:23:42;38.83;;;20.83;;
32505;SDS011;18955;51.224;8.482;2024-03-22T04:26:08;41.83;;;20.73;;
32505;SDS011;18955;51.224;8.482;2024-03-22T04:28:35;50.08;;;22.30;;
32505;SDS011;18955;51.224;8.482;2024-03-22T04:33:32;38.80;;;20.63;;
32505;SDS011;18955;51.224;8.482;2024-03-22T04:38:26;42.15;;;20.58;;
32505;SDS011;18955;51.224;8.482;2024-03-22T04:43:19;41.88;;;19.85;;
32505;SDS011;18955;51.224;8.482;2024-03-22T04:45:46;36.03;;;19.48;;
32505;SDS011;18955;51.224;8.482;2024-03-22T04:48:17;38.97;;;20.25;;
32505;SDS011;18955;51.224;8.482;2024-03-22T04:50:45;35.45;;;17.92;;
32505;SDS011;18955;51.224;8.482;2024-03-22T04:53:12;39.78;;;20.73;;
32505;SDS011;18955;51.224;8.482;2024-03-22T04:55:38;39.15;;;21.23;;
32505;SDS011;18955;51.224;8.482;2024-03-22T04:58:17;34.20;;;17.50;;
32505;SDS011;18955;51.224;8.482;2024-03-22T05:00:44;37.80;;;20.92;;
32505;SDS011;18955;51.224;8.482;2024-03-22T05:03:11;39.78;;;21.08;;
32505;SDS011;18955;51.224;8.482;2024-03-22T05:05:38;37.80;;;20.13;;
32505;SDS011;18955;51.224;8.482;2024-03-22T05:08:05;36.90;;;20.08;;
32505;SDS011;18955;51.224;8.482;2024-03-22T05:10:32;37.00;;;21.08;;
32505;SDS011;18955;51.224;8.482;2024-03-22T05:12:59;39.90;;;20.90;;
32505;SDS011;18955;51.224;8.482;2024-03-22T05:15:25;39.03;;;21.67;;
32505;SDS011;18955;51.224;8.482;2024-03-22T05:17:52;38.33;;;19.42;;
32505;SDS011;18955;51.224;8.482;2024-03-22T05:20:19;34.22;;;18.67;;
32505;SDS011;18955;51.224;8.482;2024-03-22T05:22:47;32.85;;;19.00;;
32505;SDS011;18955;51.224;8.482;2024-03-22T05:25:13;33.33;;;18.48;;
32505;SDS011;18955;51.224;8.482;2024-03-22T05:27:41;38.92;;;19.75;;
32505;SDS011;18955;51.224;8.482;2024-03-22T05:30:08;29.90;;;16.38;;
32505;SDS011;18955;51.224;8.482;2024-03-22T05:32:35;33.22;;;20.05;;
32505;SDS011;18955;51.224;8.482;2024-03-22T05:35:02;33.60;;;18.17;;
32505;SDS011;18955;51.224;8.482;2024-03-22T05:37:28;38.03;;;19.85;;
32505;SDS011;18955;51.224;8.482;2024-03-22T05:39:54;34.50;;;17.90;;
32505;SDS011;18955;51.224;8.482;2024-03-22T05:42:21;32.60;;;17.42;;
32505;SDS011;18955;51.224;8.482;2024-03-22T05:44:47;33.97;;;18.73;;
32505;SDS011;18955;51.224;8.482;2024-03-22T05:47:13;23.27;;;13.43;;
32505;SDS011;18955;51.224;8.482;2024-03-22T05:49:40;35.13;;;18.10;;
32505;SDS011;18955;51.224;8.482;2024-03-22T05:52:06;35.45;;;18.85;;
32505;SDS011;18955;51.224;8.482;2024-03-22T05:54:32;33.65;;;20.05;;
32505;SDS011;18955;51.224;8.482;2024-03-22T05:56:58;33.95;;;20.27;;
32505;SDS011;18955;51.224;8.482;2024-03-22T05:59:26;30.10;;;18.17;;
32505;SDS011;18955;51.224;8.482;2024-03-22T06:01:53;31.63;;;17.83;;
32505;SDS011;18955;51.224;8.482;2024-03-22T06:04:19;33.53;;;18.55;;
32505;SDS011;18955;51.224;8.482;2024-03-22T06:06:45;24.10;;;13.00;;
32505;SDS011;18955;51.224;8.482;2024-03-22T06:09:12;40.70;;;18.10;;
32505;SDS011;18955;51.224;8.482;2024-03-22T06:14:09;27.50;;;16.45;;
32505;SDS011;18955;51.224;8.482;2024-03-22T06:16:35;22.45;;;11.43;;
32505;SDS011;18955;51.224;8.482;2024-03-22T06:19:01;21.73;;;12.13;;
32505;SDS011;18955;51.224;8.482;2024-03-22T06:21:29;26.30;;;14.07;;
32505;SDS011;18955;51.224;8.482;2024-03-22T06:23:55;29.95;;;16.65;;
32505;SDS011;18955;51.224;8.482;2024-03-22T06:26:21;21.00;;;11.63;;
32505;SDS011;18955;51.224;8.482;2024-03-22T06:28:47;30.38;;;14.35;;
32505;SDS011;18955;51.224;8.482;2024-03-22T06:31:13;30.30;;;16.33;;
32505;SDS011;18955;51.224;8.482;2024-03-22T06:33:40;24.33;;;14.90;;
32505;SDS011;18955;51.224;8.482;2024-03-22T06:36:06;28.38;;;15.10;;
32505;SDS011;18955;51.224;8.482;2024-03-22T06:38:33;31.85;;;16.70;;
32505;SDS011;18955;51.224;8.482;2024-03-22T06:41:00;20.08;;;11.32;;
32505;SDS011;18955;51.224;8.482;2024-03-22T06:43:26;26.88;;;15.85;;
32505;SDS011;18955;51.224;8.482;2024-03-22T06:45:52;31.10;;;15.05;;
32505;SDS011;18955;51.224;8.482;2024-03-22T06:48:18;17.90;;;10.57;;
32505;SDS011;18955;51.224;8.482;2024-03-22T06:50:44;19.35;;;10.98;;
32505;SDS011;18955;51.224;8.482;2024-03-22T06:53:11;29.48;;;15.80;;
32505;SDS011;18955;51.224;8.482;2024-03-22T06:55:38;30.45;;;17.92;;
32505;SDS011;18955;51.224;8.482;2024-03-22T06:58:04;41.28;;;19.90;;
32505;SDS011;18955;51.224;8.482;2024-03-22T07:00:30;33.67;;;20.02;;
32505;SDS011;18955;51.224;8.482;2024-03-22T07:03:01;37.40;;;20.52;;
32505;SDS011;18955;51.224;8.482;2024-03-22T07:05:28;29.05;;;17.33;;
32505;SDS011;18955;51.224;8.482;2024-03-22T07:07:56;28.98;;;16.50;;
32505;SDS011;18955;51.224;8.482;2024-03-22T07:10:23;33.20;;;20.38;;
32505;SDS011;18955;51.224;8.482;2024-03-22T07:12:56;36.28;;;21.27;;
32505;SDS011;18955;51.224;8.482;2024-03-22T07:15:23;38.30;;;21.30;;
32505;SDS011;18955;51.224;8.482;2024-03-22T07:17:50;44.75;;;22.05;;
32505;SDS011;18955;51.224;8.482;2024-03-22T07:20:17;41.00;;;22.88;;
32505;SDS011;18955;51.224;8.482;2024-03-22T07:22:44;37.83;;;21.83;;
32505;SDS011;18955;51.224;8.482;2024-03-22T07:25:11;41.42;;;22.00;;
32505;SDS011;18955;51.224;8.482;2024-03-22T07:27:37;40.42;;;23.17;;
32505;SDS011;18955;51.224;8.482;2024-03-22T07:30:04;30.42;;;15.43;;
32505;SDS011;18955;51.224;8.482;2024-03-22T07:34:57;36.10;;;23.00;;
32505;SDS011;18955;51.224;8.482;2024-03-22T07:37:23;43.42;;;24.92;;
32505;SDS011;18955;51.224;8.482;2024-03-22T07:39:50;42.42;;;25.52;;
32505;SDS011;18955;51.224;8.482;2024-03-22T07:42:16;43.58;;;22.67;;
32505;SDS011;18955;51.224;8.482;2024-03-22T07:44:43;40.42;;;24.85;;
32505;SDS011;18955;51.224;8.482;2024-03-22T07:47:09;48.30;;;25.13;;
32505;SDS011;18955;51.224;8.482;2024-03-22T07:49:35;45.38;;;25.83;;
32505;SDS011;18955;51.224;8.482;2024-03-22T07:52:02;36.72;;;23.35;;
32505;SDS011;18955;51.224;8.482;2024-03-22T07:54:29;43.67;;;23.95;;
32505;SDS011;18955;51.224;8.482;2024-03-22T07:56:56;49.40;;;25.05;;
32505;SDS011;18955;51.224;8.482;2024-03-22T07:59:22;34.78;;;17.40;;
32505;SDS011;18955;51.224;8.482;2024-03-22T08:01:48;37.47;;;17.23;;
32505;SDS011;18955;51.224;8.482;2024-03-22T08:04:14;41.42;;;22.73;;
32505;SDS011;18955;51.224;8.482;2024-03-22T08:06:41;50.22;;;22.33;;
32505;SDS011;18955;51.224;8.482;2024-03-22T08:09:07;40.88;;;22.42;;
32505;SDS011;18955;51.224;8.482;2024-03-22T08:11:33;36.58;;;20.15;;
32505;SDS011;18955;51.224;8.482;2024-03-22T08:16:29;36.72;;;19.98;;
32505;SDS011;18955;51.224;8.482;2024-03-22T08:21:22;38.30;;;20.08;;
32505;SDS011;18955;51.224;8.482;2024-03-22T08:23:49;40.72;;;23.80;;
32505;SDS011;18955;51.224;8.482;2024-03-22T08:26:16;36.10;;;21.98;;
32505;SDS011;18955;51.224;8.482;2024-03-22T08:28:42;53.80;;;24.00;;
32505;SDS011;18955;51.224;8.482;2024-03-22T08:31:09;41.97;;;24.45;;
32505;SDS011;18955;51.224;8.482;2024-03-22T08:33:36;53.00;;;22.92;;
32505;SDS011;18955;51.224;8.482;2024-03-22T08:36:02;34.60;;;16.92;;
32505;SDS011;18955;51.224;8.482;2024-03-22T08:38:28;40.40;;;22.30;;
32505;SDS011;18955;51.224;8.482;2024-03-22T08:40:54;49.20;;;20.10;;
32505;SDS011;18955;51.224;8.482;2024-03-22T08:43:21;42.63;;;22.05;;
32505;SDS011;18955;51.224;8.482;2024-03-22T08:45:51;38.22;;;22.08;;
32505;SDS011;18955;51.224;8.482;2024-03-22T08:48:18;42.03;;;21.40;;
32505;SDS011;18955;51.224;8.482;2024-03-22T08:50:44;31.08;;;16.52;;
32505;SDS011;18955;51.224;8.482;2024-03-22T08:53:10;39.00;;;21.52;;
32505;SDS011;18955;51.224;8.482;2024-03-22T08:55:37;25.35;;;15.23;;
32505;SDS011;18955;51.224;8.482;2024-03-22T08:58:03;38.55;;;21.30;;
32505;SDS011;18955;51.224;8.482;2024-03-22T09:00:30;40.05;;;20.83;;
32505;SDS011;18955;51.224;8.482;2024-03-22T09:02:56;26.92;;;14.48;;
32505;SDS011;18955;51.224;8.482;2024-03-22T09:05:23;36.20;;;18.92;;
32505;SDS011;18955;51.224;8.482;2024-03-22T09:07:50;28.55;;;14.27;;
32505;SDS011;18955;51.224;8.482;2024-03-22T09:10:18;30.95;;;19.05;;
32505;SDS011;18955;51.224;8.482;2024-03-22T09:12:44;35.50;;;19.63;;
32505;SDS011;18955;51.224;8.482;2024-03-22T09:15:11;34.85;;;21.00;;
32505;SDS011;18955;51.224;8.482;2024-03-22T09:17:37;33.25;;;19.23;;
32505;SDS011;18955;51.224;8.482;2024-03-22T09:22:30;31.70;;;18.95;;
32505;SDS011;18955;51.224;8.482;2024-03-22T09:24:58;30.67;;;19.20;;
32505;SDS011;18955;51.224;8.482;2024-03-22T09:27:24;31.10;;;19.02;;
32505;SDS011;18955;51.224;8.482;2024-03-22T09:29:51;37.17;;;19.88;;
32505;SDS011;18955;51.224;8.482;2024-03-22T09:32:18;29.52;;;18.83;;
32505;SDS011;18955;51.224;8.482;2024-03-22T09:34:44;30.30;;;17.45;;
32505;SDS011;18955;51.224;8.482;2024-03-22T09:37:10;33.80;;;17.75;;
32505;SDS011;18955;51.224;8.482;2024-03-22T09:39:37;32.17;;;17.55;;
32505;SDS011;18955;51.224;8.482;2024-03-22T09:42:03;23.17;;;12.23;;
32505;SDS011;18955;51.224;8.482;2024-03-22T09:44:32;25.50;;;15.35;;
32505;SDS011;18955;51.224;8.482;2024-03-22T09:46:58;15.52;;;9.32;;
32505;SDS011;18955;51.224;8.482;2024-03-22T09:49:26;27.40;;;14.05;;
32505;SDS011;18955;51.224;8.482;2024-03-22T09:51:52;22.40;;;13.18;;
32505;SDS011;18955;51.224;8.482;2024-03-22T09:54:20;27.83;;;12.88;;
32505;SDS011;18955;51.224;8.482;2024-03-22T09:56:50;24.77;;;13.60;;
32505;SDS011;18955;51.224;8.482;2024-03-22T09:59:17;19.23;;;12.07;;
32505;SDS011;18955;51.224;8.482;2024-03-22T10:01:43;22.98;;;12.77;;
32505;SDS011;18955;51.224;8.482;2024-03-22T10:04:11;25.30;;;12.13;;
32505;SDS011;18955;51.224;8.482;2024-03-22T10:06:37;18.45;;;11.88;;
32505;SDS011;18955;51.224;8.482;2024-03-22T10:09:04;13.77;;;8.98;;
32505;SDS011;18955;51.224;8.482;2024-03-22T10:11:31;22.45;;;12.27;;
32505;SDS011;18955;51.224;8.482;2024-03-22T10:13:59;22.85;;;11.95;;
32505;SDS011;18955;51.224;8.482;2024-03-22T10:16:25;19.52;;;11.10;;
32505;SDS011;18955;51.224;8.482;2024-03-22T10:18:52;19.95;;;10.77;;
32505;SDS011;18955;51.224;8.482;2024-03-22T10:21:19;19.23;;;9.82;;
32505;SDS011;18955;51.224;8.482;2024-03-22T10:23:46;18.67;;;10.35;;
32505;SDS011;18955;51.224;8.482;2024-03-22T10:26:14;16.92;;;8.82;;
32505;SDS011;18955;51.224;8.482;2024-03-22T10:28:47;26.77;;;9.63;;
32505;SDS011;18955;51.224;8.482;2024-03-22T10:31:13;18.50;;;9.45;;
32505;SDS011;18955;51.224;8.482;2024-03-22T10:33:40;14.30;;;8.52;;
32505;SDS011;18955;51.224;8.482;2024-03-22T10:36:07;18.85;;;9.43;;
32505;SDS011;18955;51.224;8.482;2024-03-22T10:38:38;14.48;;;8.32;;
32505;SDS011;18955;51.224;8.482;2024-03-22T10:41:06;16.52;;;8.40;;
32505;SDS011;18955;51.224;8.482;2024-03-22T10:43:32;13.07;;;7.50;;
32505;SDS011;18955;51.224;8.482;2024-03-22T10:46:01;13.90;;;7.97;;
32505;SDS011;18955;51.224;8.482;2024-03-22T10:48:30;21.70;;;8.13;;
32505;SDS011;18955;51.224;8.482;2024-03-22T10:51:00;16.60;;;8.65;;
32505;SDS011;18955;51.224;8.482;2024-03-22T10:53:28;14.82;;;8.60;;
32505;SDS011;18955;51.224;8.482;2024-03-22T10:55:57;14.88;;;8.98;;
32505;SDS011;18955;51.224;8.482;2024-03-22T10:58:26;15.52;;;8.68;;
32505;SDS011;18955;51.224;8.482;2024-03-22T11:00:52;16.70;;;8.38;;
32505;SDS011;18955;51.224;8.482;2024-03-22T11:03:21;13.77;;;8.35;;
32505;SDS011;18955;51.224;8.482;2024-03-22T11:05:50;13.52;;;8.05;;
32505;SDS011;18955;51.224;8.482;2024-03-22T11:08:27;16.80;;;7.43;;
32505;SDS011;18955;51.224;8.482;2024-03-22T11:10:54;15.75;;;8.05;;
32505;SDS011;18955;51.224;8.482;2024-03-22T11:13:22;14.25;;;7.45;;
32505;SDS011;18955;51.224;8.482;2024-03-22T11:15:49;11.93;;;7.88;;
32505;SDS011;18955;51.224;8.482;2024-03-22T11:18:17;14.43;;;8.07;;
32505;SDS011;18955;51.224;8.482;2024-03-22T11:23:12;12.35;;;7.70;;
32505;SDS011;18955;51.224;8.482;2024-03-22T11:25:38;9.88;;;7.05;;
32505;SDS011;18955;51.224;8.482;2024-03-22T11:28:05;4.63;;;3.45;;
32505;SDS011;18955;51.224;8.482;2024-03-22T11:30:32;10.48;;;6.80;;
32505;SDS011;18955;51.224;8.482;2024-03-22T11:33:01;13.10;;;6.68;;
32505;SDS011;18955;51.224;8.482;2024-03-22T11:35:28;20.48;;;8.18;;
32505;SDS011;18955;51.224;8.482;2024-03-22T11:37:54;16.50;;;8.10;;
32505;SDS011;18955;51.224;8.482;2024-03-22T11:40:22;14.10;;;8.05;;
32505;SDS011;18955;51.224;8.482;2024-03-22T11:42:50;15.70;;;7.63;;
32505;SDS011;18955;51.224;8.482;2024-03-22T11:45:17;13.27;;;7.40;;
32505;SDS011;18955;51.224;8.482;2024-03-22T11:47:45;11.63;;;7.40;;
32505;SDS011;18955;51.224;8.482;2024-03-22T11:50:13;12.40;;;6.60;;
32505;SDS011;18955;51.224;8.482;2024-03-22T11:52:40;11.75;;;6.80;;
32505;SDS011;18955;51.224;8.482;2024-03-22T11:55:07;12.80;;;7.22;;
32505;SDS011;18955;51.224;8.482;2024-03-22T11:57:33;14.13;;;7.07;;
32505;SDS011;18955;51.224;8.482;2024-03-22T12:00:00;12.15;;;6.95;;
32505;SDS011;18955;51.224;8.482;2024-03-22T12:02:27;11.18;;;6.80;;
32505;SDS011;18955;51.224;8.482;2024-03-22T12:04:53;17.23;;;6.72;;
32505;SDS011;18955;51.224;8.482;2024-03-22T12:07:19;9.52;;;5.90;;
32505;SDS011;18955;51.224;8.482;2024-03-22T12:09:46;12.82;;;5.03;;
32505;SDS011;18955;51.224;8.482;2024-03-22T12:12:12;10.55;;;7.05;;
32505;SDS011;18955;51.224;8.482;2024-03-22T12:14:39;13.90;;;7.78;;
32505;SDS011;18955;51.224;8.482;2024-03-22T12:17:06;19.77;;;7.88;;
32505;SDS011;18955;51.224;8.482;2024-03-22T12:21:59;16.70;;;8.13;;
32505;SDS011;18955;51.224;8.482;2024-03-22T12:26:55;17.73;;;6.18;;
32505;SDS011;18955;51.224;8.482;2024-03-22T12:29:21;11.55;;;6.63;;
32505;SDS011;18955;51.224;8.482;2024-03-22T12:31:47;14.25;;;7.18;;
32505;SDS011;18955;51.224;8.482;2024-03-22T12:34:14;12.93;;;6.97;;
32505;SDS011;18955;51.224;8.482;2024-03-22T12:36:40;18.63;;;6.78;;
32505;SDS011;18955;51.224;8.482;2024-03-22T12:39:06;11.98;;;6.18;;
32505;SDS011;18955;51.224;8.482;2024-03-22T12:41:32;19.30;;;6.80;;
32505;SDS011;18955;51.224;8.482;2024-03-22T12:43:59;12.45;;;6.25;;
32505;SDS011;18955;51.224;8.482;2024-03-22T12:48:53;12.27;;;6.47;;
32505;SDS011;18955;51.224;8.482;2024-03-22T12:51:19;14.20;;;7.13;;
32505;SDS011;18955;51.224;8.482;2024-03-22T12:53:46;12.93;;;6.45;;
32505;SDS011;18955;51.224;8.482;2024-03-22T12:56:12;11.93;;;5.88;;
32505;SDS011;18955;51.224;8.482;2024-03-22T12:58:38;9.75;;;5.03;;
32505;SDS011;18955;51.224;8.482;2024-03-22T13:01:05;13.23;;;6.68;;
32505;SDS011;18955;51.224;8.482;2024-03-22T13:03:32;12.68;;;6.55;;
32505;SDS011;18955;51.224;8.482;2024-03-22T13:08:24;15.40;;;6.60;;
32505;SDS011;18955;51.224;8.482;2024-03-22T13:10:50;8.50;;;4.10;;
32505;SDS011;18955;51.224;8.482;2024-03-22T13:13:18;11.95;;;6.38;;
32505;SDS011;18955;51.224;8.482;2024-03-22T13:15:44;12.15;;;6.70;;
32505;SDS011;18955;51.224;8.482;2024-03-22T13:18:12;13.40;;;6.28;;
32505;SDS011;18955;51.224;8.482;2024-03-22T13:23:05;13.93;;;4.95;;
32505;SDS011;18955;51.224;8.482;2024-03-22T13:25:31;10.90;;;3.88;;
32505;SDS011;18955;51.224;8.482;2024-03-22T13:27:58;9.82;;;4.97;;
32505;SDS011;18955;51.224;8.482;2024-03-22T13:32:50;7.53;;;4.20;;
32505;SDS011;18955;51.224;8.482;2024-03-22T13:35:17;7.13;;;4.15;;
32505;SDS011;18955;51.224;8.482;2024-03-22T13:37:43;7.30;;;3.72;;
32505;SDS011;18955;51.224;8.482;2024-03-22T13:40:09;8.60;;;4.40;;
32505;SDS011;18955;51.224;8.482;2024-03-22T13:42:36;10.40;;;5.07;;
32505;SDS011;18955;51.224;8.482;2024-03-22T13:45:03;8.18;;;4.63;;
32505;SDS011;18955;51.224;8.482;2024-03-22T13:47:29;9.80;;;5.03;;
32505;SDS011;18955;51.224;8.482;2024-03-22T13:49:55;9.55;;;4.78;;
32505;SDS011;18955;51.224;8.482;2024-03-22T13:52:22;7.97;;;5.20;;
32505;SDS011;18955;51.224;8.482;2024-03-22T13:54:48;10.15;;;3.88;;
32505;SDS011;18955;51.224;8.482;2024-03-22T13:57:15;9.55;;;4.80;;
32505;SDS011;18955;51.224;8.482;2024-03-22T13:59:41;10.13;;;4.75;;
32505;SDS011;18955;51.224;8.482;2024-03-22T14:02:08;12.93;;;5.90;;
32505;SDS011;18955;51.224;8.482;2024-03-22T14:04:34;11.23;;;6.15;;
32505;SDS011;18955;51.224;8.482;2024-03-22T14:09:33;11.02;;;5.82;;
32505;SDS011;18955;51.224;8.482;2024-03-22T14:12:00;8.50;;;5.95;;
32505;SDS011;18955;51.224;8.482;2024-03-22T14:14:26;11.20;;;6.30;;
32505;SDS011;18955;51.224;8.482;2024-03-22T14:16:52;24.48;;;6.43;;
32505;SDS011;18955;51.224;8.482;2024-03-22T14:19:19;10.20;;;6.18;;
32505;SDS011;18955;51.224;8.482;2024-03-22T14:21:46;10.88;;;6.82;;
32505;SDS011;18955;51.224;8.482;2024-03-22T14:24:12;9.25;;;6.40;;
32505;SDS011;18955;51.224;8.482;2024-03-22T14:26:39;10.98;;;5.53;;
32505;SDS011;18955;51.224;8.482;2024-03-22T14:29:08;13.35;;;6.00;;
32505;SDS011;18955;51.224;8.482;2024-03-22T14:31:36;7.90;;;5.55;;
32505;SDS011;18955;51.224;8.482;2024-03-22T14:34:03;10.73;;;5.97;;
32505;SDS011;18955;51.224;8.482;2024-03-22T14:36:32;9.52;;;4.93;;
32505;SDS011;18955;51.224;8.482;2024-03-22T14:38:59;7.53;;;4.45;;
32505;SDS011;18955;51.224;8.482;2024-03-22T14:41:27;8.50;;;4.57;;
32505;SDS011;18955;51.224;8.482;2024-03-22T14:43:53;11.80;;;5.15;;
32505;SDS011;18955;51.224;8.482;2024-03-22T14:48:50;8.07;;;3.88;;
32505;SDS011;18955;51.224;8.482;2024-03-22T14:51:19;5.13;;;3.42;;
32505;SDS011;18955;51.224;8.482;2024-03-22T14:53:45;5.57;;;3.00;;
32505;SDS011;18955;51.224;8.482;2024-03-22T14:56:11;5.15;;;3.42;;
32505;SDS011;18955;51.224;8.482;2024-03-22T14:58:38;6.63;;;3.30;;
32505;SDS011;18955;51.224;8.482;2024-03-22T15:01:05;12.45;;;4.15;;
32505;SDS011;18955;51.224;8.482;2024-03-22T15:03:32;7.70;;;4.00;;
32505;SDS011;18955;51.224;8.482;2024-03-22T15:05:59;9.63;;;3.80;;
32505;SDS011;18955;51.224;8.482;2024-03-22T15:08:25;5.13;;;3.65;;
32505;SDS011;18955;51.224;8.482;2024-03-22T15:10:53;6.40;;;3.28;;
32505;SDS011;18955;51.224;8.482;2024-03-22T15:15:52;8.23;;;3.67;;
32505;SDS011;18955;51.224;8.482;2024-03-22T15:18:20;6.70;;;3.85;;
32505;SDS011;18955;51.224;8.482;2024-03-22T15:23:13;5.25;;;3.30;;
32505;SDS011;18955;51.224;8.482;2024-03-22T15:25:40;8.50;;;3.78;;
32505;SDS011;18955;51.224;8.482;2024-03-22T15:28:08;10.60;;;2.90;;